sensor_id;sensor_type;location;lat;lon;timestamp;temperature;humidity
40534;DHT22;26233;51.894;10.192;2023-07-20T00:02:03;19.20;47.20
40534;DHT22;26233;51.894;10.192;2023-07-20T00:04:31;19.20;47.30
40534;DHT22;26233;51.894;10.192;2023-07-20T00:06:58;19.20;47.40
40534;DHT22;26233;51.894;10.192;2023-07-20T00:09:27;19.20;47.50
40534;DHT22;26233;51.894;10.192;2023-07-20T00:11:54;19.20;48.10
40534;DHT22;26233;51.894;10.192;2023-07-20T00:14:22;19.20;47.50
40534;DHT22;26233;51.894;10.192;2023-07-20T00:16:50;19.20;47.50
40534;DHT22;26233;51.894;10.192;2023-07-20T00:19:22;19.20;47.60
40534;DHT22;26233;51.894;10.192;2023-07-20T00:21:49;19.20;47.60
40534;DHT22;26233;51.894;10.192;2023-07-20T00:24:17;19.20;47.70
40534;DHT22;26233;51.894;10.192;2023-07-20T00:26:46;19.20;47.80
40534;DHT22;26233;51.894;10.192;2023-07-20T00:29:13;19.20;47.90
40534;DHT22;26233;51.894;10.192;2023-07-20T00:31:40;19.20;47.90
40534;DHT22;26233;51.894;10.192;2023-07-20T00:34:09;19.20;48.00
40534;DHT22;26233;51.894;10.192;2023-07-20T00:36:36;19.20;48.10
40534;DHT22;26233;51.894;10.192;2023-07-20T00:39:03;19.30;48.30
40534;DHT22;26233;51.894;10.192;2023-07-20T00:41:30;19.30;48.30
40534;DHT22;26233;51.894;10.192;2023-07-20T00:43:59;19.30;48.10
40534;DHT22;26233;51.894;10.192;2023-07-20T00:46:26;19.30;48.20
40534;DHT22;26233;51.894;10.192;2023-07-20T00:48:53;19.30;48.20
40534;DHT22;26233;51.894;10.192;2023-07-20T00:51:23;19.30;48.30
40534;DHT22;26233;51.894;10.192;2023-07-20T00:53:51;19.30;48.40
40534;DHT22;26233;51.894;10.192;2023-07-20T00:56:19;19.30;48.50
40534;DHT22;26233;51.894;10.192;2023-07-20T00:58:46;19.40;48.50
40534;DHT22;26233;51.894;10.192;2023-07-20T01:01:15;19.40;48.50
40534;DHT22;26233;51.894;10.192;2023-07-20T01:03:42;19.40;48.50
40534;DHT22;26233;51.894;10.192;2023-07-20T01:06:18;19.40;48.50
40534;DHT22;26233;51.894;10.192;2023-07-20T01:08:57;19.40;48.70
40534;DHT22;26233;51.894;10.192;2023-07-20T01:11:36;19.50;48.70
40534;DHT22;26233;51.894;10.192;2023-07-20T01:14:05;19.50;48.70
40534;DHT22;26233;51.894;10.192;2023-07-20T01:16:34;19.40;48.50
40534;DHT22;26233;51.894;10.192;2023-07-20T01:19:01;19.50;48.70
40534;DHT22;26233;51.894;10.192;2023-07-20T01:21:33;19.50;48.70
40534;DHT22;26233;51.894;10.192;2023-07-20T01:24:32;19.50;48.80
40534;DHT22;26233;51.894;10.192;2023-07-20T01:30:52;19.40;49.10
40534;DHT22;26233;51.894;10.192;2023-07-20T01:33:24;19.40;49.10
40534;DHT22;26233;51.894;10.192;2023-07-20T01:35:56;19.40;48.60
40534;DHT22;26233;51.894;10.192;2023-07-20T01:38:24;19.40;48.70
40534;DHT22;26233;51.894;10.192;2023-07-20T01:40:52;19.40;48.70
40534;DHT22;26233;51.894;10.192;2023-07-20T01:43:19;19.40;48.80
40534;DHT22;26233;51.894;10.192;2023-07-20T01:45:46;19.30;48.70
40534;DHT22;26233;51.894;10.192;2023-07-20T01:48:13;19.30;48.80
40534;DHT22;26233;51.894;10.192;2023-07-20T01:50:42;19.30;48.90
40534;DHT22;26233;51.894;10.192;2023-07-20T01:53:09;19.30;49.00
40534;DHT22;26233;51.894;10.192;2023-07-20T01:55:36;19.30;49.00
40534;DHT22;26233;51.894;10.192;2023-07-20T01:58:03;19.30;49.70
40534;DHT22;26233;51.894;10.192;2023-07-20T02:00:31;19.30;49.10
40534;DHT22;26233;51.894;10.192;2023-07-20T02:02:58;19.30;49.10
40534;DHT22;26233;51.894;10.192;2023-07-20T02:05:25;19.40;49.20
40534;DHT22;26233;51.894;10.192;2023-07-20T02:07:54;19.40;49.20
40534;DHT22;26233;51.894;10.192;2023-07-20T02:10:21;19.40;49.30
40534;DHT22;26233;51.894;10.192;2023-07-20T02:12:48;19.40;49.20
40534;DHT22;26233;51.894;10.192;2023-07-20T02:15:15;19.50;49.30
40534;DHT22;26233;51.894;10.192;2023-07-20T02:17:44;19.50;49.30
40534;DHT22;26233;51.894;10.192;2023-07-20T02:20:11;19.50;49.20
40534;DHT22;26233;51.894;10.192;2023-07-20T02:22:39;19.50;49.80
40534;DHT22;26233;51.894;10.192;2023-07-20T02:25:09;19.50;49.20
40534;DHT22;26233;51.894;10.192;2023-07-20T02:27:37;19.50;49.20
40534;DHT22;26233;51.894;10.192;2023-07-20T02:30:06;19.50;49.20
40534;DHT22;26233;51.894;10.192;2023-07-20T02:32:34;19.50;49.20
40534;DHT22;26233;51.894;10.192;2023-07-20T02:35:02;19.50;49.20
40534;DHT22;26233;51.894;10.192;2023-07-20T02:37:30;19.40;49.20
40534;DHT22;26233;51.894;10.192;2023-07-20T02:39:58;19.50;49.30
40534;DHT22;26233;51.894;10.192;2023-07-20T02:42:27;19.50;49.30
40534;DHT22;26233;51.894;10.192;2023-07-20T02:44:54;19.50;49.40
40534;DHT22;26233;51.894;10.192;2023-07-20T02:47:21;19.50;49.30
40534;DHT22;26233;51.894;10.192;2023-07-20T02:49:49;19.50;49.30
40534;DHT22;26233;51.894;10.192;2023-07-20T02:52:16;19.40;49.30
40534;DHT22;26233;51.894;10.192;2023-07-20T02:54:43;19.40;49.30
40534;DHT22;26233;51.894;10.192;2023-07-20T02:57:12;19.40;49.40
40534;DHT22;26233;51.894;10.192;2023-07-20T02:59:40;19.40;49.40
40534;DHT22;26233;51.894;10.192;2023-07-20T03:02:07;19.40;49.40
40534;DHT22;26233;51.894;10.192;2023-07-20T03:04:35;19.30;49.30
40534;DHT22;26233;51.894;10.192;2023-07-20T03:07:03;19.30;49.90
40534;DHT22;26233;51.894;10.192;2023-07-20T03:09:31;19.30;49.30
40534;DHT22;26233;51.894;10.192;2023-07-20T03:11:58;19.30;49.40
40534;DHT22;26233;51.894;10.192;2023-07-20T03:14:25;19.30;49.40
40534;DHT22;26233;51.894;10.192;2023-07-20T03:16:53;19.30;49.40
40534;DHT22;26233;51.894;10.192;2023-07-20T03:19:20;19.30;49.50
40534;DHT22;26233;51.894;10.192;2023-07-20T03:21:47;19.30;49.40
40534;DHT22;26233;51.894;10.192;2023-07-20T03:24:14;19.20;49.40
40534;DHT22;26233;51.894;10.192;2023-07-20T03:26:42;19.20;49.40
40534;DHT22;26233;51.894;10.192;2023-07-20T03:29:09;19.20;49.50
40534;DHT22;26233;51.894;10.192;2023-07-20T03:31:36;19.20;49.50
40534;DHT22;26233;51.894;10.192;2023-07-20T03:34:05;19.20;49.50
40534;DHT22;26233;51.894;10.192;2023-07-20T03:36:34;19.30;49.60
40534;DHT22;26233;51.894;10.192;2023-07-20T03:39:01;19.20;49.50
40534;DHT22;26233;51.894;10.192;2023-07-20T03:41:28;19.20;49.50
40534;DHT22;26233;51.894;10.192;2023-07-20T03:43:55;19.20;49.50
40534;DHT22;26233;51.894;10.192;2023-07-20T03:46:23;19.20;49.60
40534;DHT22;26233;51.894;10.192;2023-07-20T03:48:50;19.20;49.60
40534;DHT22;26233;51.894;10.192;2023-07-20T03:51:21;19.20;49.60
40534;DHT22;26233;51.894;10.192;2023-07-20T03:53:48;19.20;49.50
40534;DHT22;26233;51.894;10.192;2023-07-20T03:56:15;19.20;49.60
40534;DHT22;26233;51.894;10.192;2023-07-20T03:58:42;19.20;49.70
40534;DHT22;26233;51.894;10.192;2023-07-20T04:01:09;19.10;49.60
40534;DHT22;26233;51.894;10.192;2023-07-20T04:03:36;19.10;49.70
40534;DHT22;26233;51.894;10.192;2023-07-20T04:06:03;19.10;49.70
40534;DHT22;26233;51.894;10.192;2023-07-20T04:08:32;19.10;49.80
40534;DHT22;26233;51.894;10.192;2023-07-20T04:11:01;19.20;49.90
40534;DHT22;26233;51.894;10.192;2023-07-20T04:13:28;19.10;49.90
40534;DHT22;26233;51.894;10.192;2023-07-20T04:15:58;19.20;50.00
40534;DHT22;26233;51.894;10.192;2023-07-20T04:18:28;19.10;49.90
40534;DHT22;26233;51.894;10.192;2023-07-20T04:20:55;19.10;49.80
40534;DHT22;26233;51.894;10.192;2023-07-20T04:23:23;19.10;49.80
40534;DHT22;26233;51.894;10.192;2023-07-20T04:25:52;19.20;49.90
40534;DHT22;26233;51.894;10.192;2023-07-20T04:28:19;19.10;49.80
40534;DHT22;26233;51.894;10.192;2023-07-20T04:30:49;19.10;49.90
40534;DHT22;26233;51.894;10.192;2023-07-20T04:33:16;19.10;50.00
40534;DHT22;26233;51.894;10.192;2023-07-20T04:35:48;19.10;49.90
40534;DHT22;26233;51.894;10.192;2023-07-20T04:38:16;19.10;50.20
40534;DHT22;26233;51.894;10.192;2023-07-20T04:40:45;19.20;50.20
40534;DHT22;26233;51.894;10.192;2023-07-20T04:43:14;19.10;50.20
40534;DHT22;26233;51.894;10.192;2023-07-20T04:45:43;19.20;50.30
40534;DHT22;26233;51.894;10.192;2023-07-20T04:48:11;19.20;50.30
40534;DHT22;26233;51.894;10.192;2023-07-20T04:50:41;19.20;50.20
40534;DHT22;26233;51.894;10.192;2023-07-20T04:53:12;19.30;50.30
40534;DHT22;26233;51.894;10.192;2023-07-20T04:55:40;19.30;50.20
40534;DHT22;26233;51.894;10.192;2023-07-20T04:58:07;19.30;50.10
40534;DHT22;26233;51.894;10.192;2023-07-20T05:00:38;19.40;50.10
40534;DHT22;26233;51.894;10.192;2023-07-20T05:03:05;19.30;50.00
40534;DHT22;26233;51.894;10.192;2023-07-20T05:05:32;19.30;49.90
40534;DHT22;26233;51.894;10.192;2023-07-20T05:07:59;19.30;49.80
40534;DHT22;26233;51.894;10.192;2023-07-20T05:10:26;19.30;49.80
40534;DHT22;26233;51.894;10.192;2023-07-20T05:12:53;19.30;49.80
40534;DHT22;26233;51.894;10.192;2023-07-20T05:15:21;19.30;49.80
40534;DHT22;26233;51.894;10.192;2023-07-20T05:17:49;19.30;49.90
40534;DHT22;26233;51.894;10.192;2023-07-20T05:20:16;19.30;49.90
40534;DHT22;26233;51.894;10.192;2023-07-20T05:22:43;19.30;49.90
40534;DHT22;26233;51.894;10.192;2023-07-20T05:25:11;19.30;49.90
40534;DHT22;26233;51.894;10.192;2023-07-20T05:27:39;19.30;49.90
40534;DHT22;26233;51.894;10.192;2023-07-20T05:30:07;19.30;50.00
40534;DHT22;26233;51.894;10.192;2023-07-20T05:32:34;19.30;50.60
40534;DHT22;26233;51.894;10.192;2023-07-20T05:35:03;19.30;50.00
40534;DHT22;26233;51.894;10.192;2023-07-20T05:37:31;19.30;50.10
40534;DHT22;26233;51.894;10.192;2023-07-20T05:39:58;19.30;50.10
40534;DHT22;26233;51.894;10.192;2023-07-20T05:42:25;19.30;50.10
40534;DHT22;26233;51.894;10.192;2023-07-20T05:44:52;19.20;50.00
40534;DHT22;26233;51.894;10.192;2023-07-20T05:47:20;19.20;50.00
40534;DHT22;26233;51.894;10.192;2023-07-20T05:49:47;19.20;50.10
40534;DHT22;26233;51.894;10.192;2023-07-20T05:52:16;19.20;50.10
40534;DHT22;26233;51.894;10.192;2023-07-20T05:54:43;19.20;50.30
40534;DHT22;26233;51.894;10.192;2023-07-20T05:57:10;19.20;50.30
40534;DHT22;26233;51.894;10.192;2023-07-20T05:59:37;19.10;50.30
40534;DHT22;26233;51.894;10.192;2023-07-20T06:02:06;19.10;50.40
40534;DHT22;26233;51.894;10.192;2023-07-20T06:04:33;19.10;50.40
40534;DHT22;26233;51.894;10.192;2023-07-20T06:07:00;19.00;50.40
40534;DHT22;26233;51.894;10.192;2023-07-20T06:09:29;19.10;50.50
40534;DHT22;26233;51.894;10.192;2023-07-20T06:11:57;19.00;50.10
40534;DHT22;26233;51.894;10.192;2023-07-20T06:14:24;18.90;49.80
40534;DHT22;26233;51.894;10.192;2023-07-20T06:16:51;18.90;49.50
40534;DHT22;26233;51.894;10.192;2023-07-20T06:19:18;18.80;49.80
40534;DHT22;26233;51.894;10.192;2023-07-20T06:21:45;18.60;49.00
40534;DHT22;26233;51.894;10.192;2023-07-20T06:24:12;18.40;49.00
40534;DHT22;26233;51.894;10.192;2023-07-20T06:26:40;18.30;48.90
40534;DHT22;26233;51.894;10.192;2023-07-20T06:29:08;18.10;48.70
40534;DHT22;26233;51.894;10.192;2023-07-20T06:31:36;17.90;48.90
40534;DHT22;26233;51.894;10.192;2023-07-20T06:34:03;17.80;49.10
40534;DHT22;26233;51.894;10.192;2023-07-20T06:36:30;17.70;49.30
40534;DHT22;26233;51.894;10.192;2023-07-20T06:38:57;17.60;49.50
40534;DHT22;26233;51.894;10.192;2023-07-20T06:41:24;17.60;49.60
40534;DHT22;26233;51.894;10.192;2023-07-20T06:43:53;17.60;49.80
40534;DHT22;26233;51.894;10.192;2023-07-20T06:46:24;17.60;50.10
40534;DHT22;26233;51.894;10.192;2023-07-20T06:48:51;17.50;50.70
40534;DHT22;26233;51.894;10.192;2023-07-20T06:51:19;17.60;50.30
40534;DHT22;26233;51.894;10.192;2023-07-20T06:53:46;17.60;50.50
40534;DHT22;26233;51.894;10.192;2023-07-20T06:56:13;17.70;50.60
40534;DHT22;26233;51.894;10.192;2023-07-20T06:58:40;17.70;50.50
40534;DHT22;26233;51.894;10.192;2023-07-20T07:01:09;17.80;50.70
40534;DHT22;26233;51.894;10.192;2023-07-20T07:03:36;17.80;50.70
40534;DHT22;26233;51.894;10.192;2023-07-20T07:06:03;17.90;50.70
40534;DHT22;26233;51.894;10.192;2023-07-20T07:08:30;17.90;50.70
40534;DHT22;26233;51.894;10.192;2023-07-20T07:10:57;17.90;50.60
40534;DHT22;26233;51.894;10.192;2023-07-20T07:13:24;17.90;50.60
40534;DHT22;26233;51.894;10.192;2023-07-20T07:15:51;18.00;50.80
40534;DHT22;26233;51.894;10.192;2023-07-20T07:18:20;18.00;50.90
40534;DHT22;26233;51.894;10.192;2023-07-20T07:20:51;18.00;50.80
40534;DHT22;26233;51.894;10.192;2023-07-20T07:23:18;18.10;50.90
40534;DHT22;26233;51.894;10.192;2023-07-20T07:25:48;18.10;50.70
40534;DHT22;26233;51.894;10.192;2023-07-20T07:28:16;18.10;50.40
40534;DHT22;26233;51.894;10.192;2023-07-20T07:30:43;18.10;50.30
40534;DHT22;26233;51.894;10.192;2023-07-20T07:33:10;18.00;50.10
40534;DHT22;26233;51.894;10.192;2023-07-20T07:35:39;18.00;50.10
40534;DHT22;26233;51.894;10.192;2023-07-20T07:38:06;17.90;50.20
40534;DHT22;26233;51.894;10.192;2023-07-20T07:40:33;18.00;50.20
40534;DHT22;26233;51.894;10.192;2023-07-20T07:43:00;17.80;50.10
40534;DHT22;26233;51.894;10.192;2023-07-20T07:45:27;17.80;50.30
40534;DHT22;26233;51.894;10.192;2023-07-20T07:47:54;17.80;50.50
40534;DHT22;26233;51.894;10.192;2023-07-20T07:50:24;17.80;50.70
40534;DHT22;26233;51.894;10.192;2023-07-20T07:52:54;17.80;51.00
40534;DHT22;26233;51.894;10.192;2023-07-20T07:55:21;17.90;51.10
40534;DHT22;26233;51.894;10.192;2023-07-20T07:57:48;17.90;51.80
40534;DHT22;26233;51.894;10.192;2023-07-20T08:00:16;18.00;51.40
40534;DHT22;26233;51.894;10.192;2023-07-20T08:02:44;18.10;51.80
40534;DHT22;26233;51.894;10.192;2023-07-20T08:05:15;18.30;52.20
40534;DHT22;26233;51.894;10.192;2023-07-20T08:07:42;18.50;52.30
40534;DHT22;26233;51.894;10.192;2023-07-20T08:10:14;18.70;52.20
40534;DHT22;26233;51.894;10.192;2023-07-20T08:12:41;18.80;52.00
40534;DHT22;26233;51.894;10.192;2023-07-20T08:15:11;18.90;51.90
40534;DHT22;26233;51.894;10.192;2023-07-20T08:17:40;19.00;51.70
40534;DHT22;26233;51.894;10.192;2023-07-20T08:20:08;19.10;51.80
40534;DHT22;26233;51.894;10.192;2023-07-20T08:22:37;19.20;51.80
40534;DHT22;26233;51.894;10.192;2023-07-20T08:25:05;19.40;51.60
40534;DHT22;26233;51.894;10.192;2023-07-20T08:27:34;19.40;51.30
40534;DHT22;26233;51.894;10.192;2023-07-20T08:30:03;19.40;51.10
40534;DHT22;26233;51.894;10.192;2023-07-20T08:32:32;19.40;50.90
40534;DHT22;26233;51.894;10.192;2023-07-20T08:35:00;19.40;50.70
40534;DHT22;26233;51.894;10.192;2023-07-20T08:37:27;19.40;50.50
40534;DHT22;26233;51.894;10.192;2023-07-20T08:39:54;19.40;50.50
40534;DHT22;26233;51.894;10.192;2023-07-20T08:42:22;19.30;50.50
40534;DHT22;26233;51.894;10.192;2023-07-20T08:44:52;19.30;50.70
40534;DHT22;26233;51.894;10.192;2023-07-20T08:47:20;19.30;50.70
40534;DHT22;26233;51.894;10.192;2023-07-20T08:49:49;19.30;50.70
40534;DHT22;26233;51.894;10.192;2023-07-20T08:52:16;19.30;50.80
40534;DHT22;26233;51.894;10.192;2023-07-20T08:54:43;19.30;50.90
40534;DHT22;26233;51.894;10.192;2023-07-20T08:57:13;19.30;50.90
40534;DHT22;26233;51.894;10.192;2023-07-20T08:59:41;19.40;51.00
40534;DHT22;26233;51.894;10.192;2023-07-20T09:02:12;19.60;52.10
40534;DHT22;26233;51.894;10.192;2023-07-20T09:04:44;19.90;54.10
40534;DHT22;26233;51.894;10.192;2023-07-20T09:07:13;20.30;54.60
40534;DHT22;26233;51.894;10.192;2023-07-20T09:09:41;20.70;53.60
40534;DHT22;26233;51.894;10.192;2023-07-20T09:12:13;21.00;52.60
40534;DHT22;26233;51.894;10.192;2023-07-20T09:14:42;21.20;52.40
40534;DHT22;26233;51.894;10.192;2023-07-20T09:17:14;21.30;51.10
40534;DHT22;26233;51.894;10.192;2023-07-20T09:19:46;21.30;50.20
40534;DHT22;26233;51.894;10.192;2023-07-20T09:22:14;21.30;49.80
40534;DHT22;26233;51.894;10.192;2023-07-20T09:24:41;21.40;50.90
40534;DHT22;26233;51.894;10.192;2023-07-20T09:27:08;21.70;52.90
40534;DHT22;26233;51.894;10.192;2023-07-20T09:29:47;22.10;54.20
40534;DHT22;26233;51.894;10.192;2023-07-20T09:32:19;22.70;54.20
40534;DHT22;26233;51.894;10.192;2023-07-20T09:34:49;23.60;55.70
40534;DHT22;26233;51.894;10.192;2023-07-20T09:37:20;24.40;55.50
40534;DHT22;26233;51.894;10.192;2023-07-20T09:39:48;25.00;54.50
40534;DHT22;26233;51.894;10.192;2023-07-20T09:42:16;25.70;53.40
40534;DHT22;26233;51.894;10.192;2023-07-20T09:44:44;26.10;52.00
40534;DHT22;26233;51.894;10.192;2023-07-20T09:47:11;26.60;51.70
40534;DHT22;26233;51.894;10.192;2023-07-20T09:49:40;27.00;50.80
40534;DHT22;26233;51.894;10.192;2023-07-20T09:52:08;27.40;50.00
40534;DHT22;26233;51.894;10.192;2023-07-20T09:54:37;27.80;49.50
40534;DHT22;26233;51.894;10.192;2023-07-20T09:57:07;28.10;49.90
40534;DHT22;26233;51.894;10.192;2023-07-20T09:59:35;28.50;49.10
40534;DHT22;26233;51.894;10.192;2023-07-20T10:04:52;29.10;47.20
40534;DHT22;26233;51.894;10.192;2023-07-20T10:07:22;29.30;46.00
40534;DHT22;26233;51.894;10.192;2023-07-20T10:09:51;29.30;45.20
40534;DHT22;26233;51.894;10.192;2023-07-20T10:12:22;29.20;45.20
40534;DHT22;26233;51.894;10.192;2023-07-20T10:14:54;29.30;45.40
40534;DHT22;26233;51.894;10.192;2023-07-20T10:17:26;29.40;45.00
40534;DHT22;26233;51.894;10.192;2023-07-20T10:19:57;29.60;45.50
40534;DHT22;26233;51.894;10.192;2023-07-20T10:22:30;29.60;44.00
40534;DHT22;26233;51.894;10.192;2023-07-20T10:24:58;29.40;42.90
40534;DHT22;26233;51.894;10.192;2023-07-20T10:27:26;29.10;42.20
40534;DHT22;26233;51.894;10.192;2023-07-20T10:29:54;28.80;41.50
40534;DHT22;26233;51.894;10.192;2023-07-20T10:32:23;28.40;41.80
40534;DHT22;26233;51.894;10.192;2023-07-20T10:34:53;28.00;41.40
40534;DHT22;26233;51.894;10.192;2023-07-20T10:37:49;27.80;41.90
40534;DHT22;26233;51.894;10.192;2023-07-20T10:40:31;27.60;42.60
40534;DHT22;26233;51.894;10.192;2023-07-20T10:43:09;27.80;43.60
40534;DHT22;26233;51.894;10.192;2023-07-20T10:45:39;28.00;43.10
40534;DHT22;26233;51.894;10.192;2023-07-20T10:48:13;28.20;43.10
40534;DHT22;26233;51.894;10.192;2023-07-20T10:50:43;28.40;43.00
40534;DHT22;26233;51.894;10.192;2023-07-20T10:53:12;28.70;43.60
40534;DHT22;26233;51.894;10.192;2023-07-20T10:55:41;28.90;42.50
40534;DHT22;26233;51.894;10.192;2023-07-20T10:58:10;28.80;41.60
40534;DHT22;26233;51.894;10.192;2023-07-20T11:00:56;28.70;40.50
40534;DHT22;26233;51.894;10.192;2023-07-20T11:03:29;28.30;39.60
40534;DHT22;26233;51.894;10.192;2023-07-20T11:05:59;28.00;39.60
40534;DHT22;26233;51.894;10.192;2023-07-20T11:08:41;27.70;39.50
40534;DHT22;26233;51.894;10.192;2023-07-20T11:11:21;27.30;38.90
40534;DHT22;26233;51.894;10.192;2023-07-20T11:13:55;26.90;39.00
40534;DHT22;26233;51.894;10.192;2023-07-20T11:16:34;26.60;39.30
40534;DHT22;26233;51.894;10.192;2023-07-20T11:19:10;26.40;40.00
40534;DHT22;26233;51.894;10.192;2023-07-20T11:21:45;26.40;41.60
40534;DHT22;26233;51.894;10.192;2023-07-20T11:24:13;26.60;42.60
40534;DHT22;26233;51.894;10.192;2023-07-20T11:26:44;26.90;42.40
40534;DHT22;26233;51.894;10.192;2023-07-20T11:29:13;27.20;42.10
40534;DHT22;26233;51.894;10.192;2023-07-20T11:31:41;27.30;41.20
40534;DHT22;26233;51.894;10.192;2023-07-20T11:34:11;27.50;40.70
40534;DHT22;26233;51.894;10.192;2023-07-20T11:36:40;27.60;40.70
40534;DHT22;26233;51.894;10.192;2023-07-20T11:39:09;27.90;41.10
40534;DHT22;26233;51.894;10.192;2023-07-20T11:41:37;28.10;41.00
40534;DHT22;26233;51.894;10.192;2023-07-20T11:44:05;28.50;41.10
40534;DHT22;26233;51.894;10.192;2023-07-20T11:46:33;28.70;40.60
40534;DHT22;26233;51.894;10.192;2023-07-20T11:49:01;28.90;40.60
40534;DHT22;26233;51.894;10.192;2023-07-20T11:51:29;29.30;40.10
40534;DHT22;26233;51.894;10.192;2023-07-20T11:53:58;29.50;39.60
40534;DHT22;26233;51.894;10.192;2023-07-20T11:56:26;29.70;39.10
40534;DHT22;26233;51.894;10.192;2023-07-20T11:58:57;29.90;39.00
40534;DHT22;26233;51.894;10.192;2023-07-20T12:01:27;30.00;38.20
40534;DHT22;26233;51.894;10.192;2023-07-20T12:03:58;30.10;37.80
40534;DHT22;26233;51.894;10.192;2023-07-20T12:06:28;30.10;37.40
40534;DHT22;26233;51.894;10.192;2023-07-20T12:08:58;30.00;37.40
40534;DHT22;26233;51.894;10.192;2023-07-20T12:11:35;29.90;36.70
40534;DHT22;26233;51.894;10.192;2023-07-20T12:14:03;29.70;35.90
40534;DHT22;26233;51.894;10.192;2023-07-20T12:16:31;29.60;36.20
40534;DHT22;26233;51.894;10.192;2023-07-20T12:19:02;29.50;36.40
40534;DHT22;26233;51.894;10.192;2023-07-20T12:21:29;29.40;36.60
40534;DHT22;26233;51.894;10.192;2023-07-20T12:23:58;29.40;37.00
40534;DHT22;26233;51.894;10.192;2023-07-20T12:26:28;29.50;36.80
40534;DHT22;26233;51.894;10.192;2023-07-20T12:28:56;29.60;36.80
40534;DHT22;26233;51.894;10.192;2023-07-20T12:31:24;29.70;36.70
40534;DHT22;26233;51.894;10.192;2023-07-20T12:33:53;29.80;36.20
40534;DHT22;26233;51.894;10.192;2023-07-20T12:36:21;29.80;35.80
40534;DHT22;26233;51.894;10.192;2023-07-20T12:38:48;29.80;35.20
40534;DHT22;26233;51.894;10.192;2023-07-20T12:41:16;29.70;34.90
40534;DHT22;26233;51.894;10.192;2023-07-20T12:43:44;29.70;34.80
40534;DHT22;26233;51.894;10.192;2023-07-20T12:46:12;29.70;34.80
40534;DHT22;26233;51.894;10.192;2023-07-20T12:48:40;29.70;34.90
40534;DHT22;26233;51.894;10.192;2023-07-20T12:51:09;29.70;34.60
40534;DHT22;26233;51.894;10.192;2023-07-20T12:53:38;29.70;34.50
40534;DHT22;26233;51.894;10.192;2023-07-20T12:56:05;29.70;34.20
40534;DHT22;26233;51.894;10.192;2023-07-20T12:58:34;29.70;34.20
40534;DHT22;26233;51.894;10.192;2023-07-20T13:01:02;29.70;33.80
40534;DHT22;26233;51.894;10.192;2023-07-20T13:03:29;29.60;33.40
40534;DHT22;26233;51.894;10.192;2023-07-20T13:05:56;29.50;33.20
40534;DHT22;26233;51.894;10.192;2023-07-20T13:08:23;29.40;33.10
40534;DHT22;26233;51.894;10.192;2023-07-20T13:10:52;29.30;32.70
40534;DHT22;26233;51.894;10.192;2023-07-20T13:13:19;29.00;32.80
40534;DHT22;26233;51.894;10.192;2023-07-20T13:15:48;28.80;32.80
40534;DHT22;26233;51.894;10.192;2023-07-20T13:18:15;28.70;32.70
40534;DHT22;26233;51.894;10.192;2023-07-20T13:20:43;28.50;32.70
40534;DHT22;26233;51.894;10.192;2023-07-20T13:23:11;28.40;32.60
40534;DHT22;26233;51.894;10.192;2023-07-20T13:25:38;28.40;33.40
40534;DHT22;26233;51.894;10.192;2023-07-20T13:28:05;28.40;32.90
40534;DHT22;26233;51.894;10.192;2023-07-20T13:30:32;28.40;32.60
40534;DHT22;26233;51.894;10.192;2023-07-20T13:33:00;28.30;32.60
40534;DHT22;26233;51.894;10.192;2023-07-20T13:35:28;28.30;32.50
40534;DHT22;26233;51.894;10.192;2023-07-20T13:37:55;28.40;32.60
40534;DHT22;26233;51.894;10.192;2023-07-20T13:40:22;28.40;32.40
40534;DHT22;26233;51.894;10.192;2023-07-20T13:42:50;28.30;32.00
40534;DHT22;26233;51.894;10.192;2023-07-20T13:45:17;28.30;31.60
40534;DHT22;26233;51.894;10.192;2023-07-20T13:47:44;28.20;31.10
40534;DHT22;26233;51.894;10.192;2023-07-20T13:50:12;28.00;31.30
40534;DHT22;26233;51.894;10.192;2023-07-20T13:52:40;27.90;31.50
40534;DHT22;26233;51.894;10.192;2023-07-20T13:55:08;27.80;31.70
40534;DHT22;26233;51.894;10.192;2023-07-20T13:57:35;27.80;31.90
40534;DHT22;26233;51.894;10.192;2023-07-20T14:00:03;27.70;31.90
40534;DHT22;26233;51.894;10.192;2023-07-20T14:02:31;27.70;31.60
40534;DHT22;26233;51.894;10.192;2023-07-20T14:04:58;27.60;31.50
40534;DHT22;26233;51.894;10.192;2023-07-20T14:07:27;27.50;31.30
40534;DHT22;26233;51.894;10.192;2023-07-20T14:09:54;27.30;31.10
40534;DHT22;26233;51.894;10.192;2023-07-20T14:12:21;27.20;31.20
40534;DHT22;26233;51.894;10.192;2023-07-20T14:14:48;27.00;31.40
40534;DHT22;26233;51.894;10.192;2023-07-20T14:17:15;26.90;31.30
40534;DHT22;26233;51.894;10.192;2023-07-20T14:19:42;26.70;31.20
40534;DHT22;26233;51.894;10.192;2023-07-20T14:22:09;26.50;31.40
40534;DHT22;26233;51.894;10.192;2023-07-20T14:24:37;26.30;31.50
40534;DHT22;26233;51.894;10.192;2023-07-20T14:27:05;26.20;31.50
40534;DHT22;26233;51.894;10.192;2023-07-20T14:29:32;26.10;31.60
40534;DHT22;26233;51.894;10.192;2023-07-20T14:32:02;26.00;31.70
40534;DHT22;26233;51.894;10.192;2023-07-20T14:34:31;25.80;31.60
40534;DHT22;26233;51.894;10.192;2023-07-20T14:36:59;25.70;31.60
40534;DHT22;26233;51.894;10.192;2023-07-20T14:39:26;25.70;31.70
40534;DHT22;26233;51.894;10.192;2023-07-20T14:41:55;25.50;32.30
40534;DHT22;26233;51.894;10.192;2023-07-20T14:44:22;25.40;31.60
40534;DHT22;26233;51.894;10.192;2023-07-20T14:46:50;25.30;31.60
40534;DHT22;26233;51.894;10.192;2023-07-20T14:49:17;25.20;31.70
40534;DHT22;26233;51.894;10.192;2023-07-20T14:51:44;25.10;31.70
40534;DHT22;26233;51.894;10.192;2023-07-20T14:54:13;25.00;31.80
40534;DHT22;26233;51.894;10.192;2023-07-20T14:56:49;25.00;32.20
40534;DHT22;26233;51.894;10.192;2023-07-20T14:59:18;24.90;32.20
40534;DHT22;26233;51.894;10.192;2023-07-20T15:01:45;25.00;32.50
40534;DHT22;26233;51.894;10.192;2023-07-20T15:04:12;25.00;32.60
40534;DHT22;26233;51.894;10.192;2023-07-20T15:06:39;25.10;32.70
40534;DHT22;26233;51.894;10.192;2023-07-20T15:09:06;25.20;33.50
40534;DHT22;26233;51.894;10.192;2023-07-20T15:11:35;25.20;32.90
40534;DHT22;26233;51.894;10.192;2023-07-20T15:14:02;25.30;32.90
40534;DHT22;26233;51.894;10.192;2023-07-20T15:16:31;25.40;33.10
40534;DHT22;26233;51.894;10.192;2023-07-20T15:18:58;25.40;33.40
40534;DHT22;26233;51.894;10.192;2023-07-20T15:21:25;25.50;32.90
40534;DHT22;26233;51.894;10.192;2023-07-20T15:23:56;25.50;32.80
40534;DHT22;26233;51.894;10.192;2023-07-20T15:26:23;25.60;32.70
40534;DHT22;26233;51.894;10.192;2023-07-20T15:28:51;25.70;32.70
40534;DHT22;26233;51.894;10.192;2023-07-20T15:31:18;25.70;32.20